Time;durP1;ratioP1;P1;durP2;ratioP2;P2;SDS_P1;SDS_P2;PMS_P1;PMS_P2;Temp;Humidity;BMP_temperature;BMP_pressure;BME280_temperature;BME280_humidity;BME280_pressure;Samples;Min_cycle;Max_cycle;Signal;HPM_P1;HPM_P2
2023/01/25 00:00:27;;;;;;;16.23;8.70;;;2.40;90.70;;;;;;5045586;28;20037;-79
2023/01/25 00:02:53;;;;;;;12.93;8.05;;;2.40;90.70;;;;;;5046030;28;20108;-78
2023/01/25 00:05:18;;;;;;;12.48;7.85;;;2.40;90.70;;;;;;5058400;28;20464;-78
2023/01/25 00:07:44;;;;;;;16.83;8.48;;;2.40;90.70;;;;;;5078755;27;20110;-78
2023/01/25 00:10:10;;;;;;;15.60;8.63;;;2.40;90.70;;;;;;5081899;28;20652;-77
2023/01/25 00:12:35;;;;;;;13.77;7.57;;;2.40;90.70;;;;;;5081709;28;20023;-76
2023/01/25 00:15:01;;;;;;;14.95;8.00;;;2.40;90.70;;;;;;5064575;28;20425;-78
2023/01/25 00:17:26;;;;;;;14.88;7.82;;;2.40;90.70;;;;;;5079184;28;20478;-79
2023/01/25 00:19:52;;;;;;;15.70;8.52;;;2.40;90.70;;;;;;5057022;28;20758;-80
2023/01/25 00:22:25;;;;;;;12.40;7.72;;;2.40;90.70;;;;;;5040676;27;20035;-80
2023/01/25 00:24:51;;;;;;;14.45;7.68;;;2.40;90.70;;;;;;5043695;28;20070;-79
2023/01/25 00:27:16;;;;;;;14.93;8.18;;;2.40;90.70;;;;;;5061796;27;20650;-78
2023/01/25 00:29:42;;;;;;;12.75;7.18;;;2.40;90.70;;;;;;5065608;27;20047;-78
2023/01/25 00:32:14;;;;;;;13.23;7.45;;;2.40;90.70;;;;;;5079605;28;20039;-78
2023/01/25 00:34:46;;;;;;;15.50;8.57;;;2.40;90.70;;;;;;5074266;28;20115;-78
2023/01/25 00:37:38;;;;;;;15.88;8.45;;;2.40;90.70;;;;;;5056251;27;20103;-78
2023/01/25 00:40:04;;;;;;;16.73;9.00;;;2.30;90.70;;;;;;5059812;28;20178;-78
2023/01/25 00:42:29;;;;;;;16.15;9.32;;;2.30;90.70;;;;;;5044171;28;20049;-77
2023/01/25 00:44:55;;;;;;;16.38;8.23;;;2.30;90.70;;;;;;5057129;28;20044;-77
2023/01/25 00:47:20;;;;;;;15.40;8.68;;;2.30;90.70;;;;;;5075846;28;20043;-77
2023/01/25 00:49:46;;;;;;;15.68;8.52;;;2.30;90.80;;;;;;5061903;28;20043;-77
2023/01/25 00:52:12;;;;;;;15.35;7.75;;;2.30;90.70;;;;;;5050578;28;20031;-77
2023/01/25 00:54:37;;;;;;;13.15;8.05;;;2.30;90.70;;;;;;5044207;28;20148;-78
2023/01/25 00:57:03;;;;;;;16.10;7.93;;;2.30;90.80;;;;;;5071079;28;20506;-78
2023/01/25 00:59:29;;;;;;;17.08;8.90;;;2.30;90.80;;;;;;5060306;28;20043;-78
2023/01/25 01:01:54;;;;;;;16.33;8.57;;;2.30;90.80;;;;;;5066306;27;20043;-78
2023/01/25 01:04:23;;;;;;;17.15;8.30;;;2.30;90.80;;;;;;5056693;27;20394;-79
2023/01/25 01:06:49;;;;;;;15.23;8.75;;;2.30;90.80;;;;;;5052588;28;20036;-79
2023/01/25 01:09:15;;;;;;;15.02;8.15;;;2.40;90.80;;;;;;5063000;27;20074;-77
2023/01/25 01:11:41;;;;;;;13.27;7.32;;;2.30;90.80;;;;;;5047859;28;20045;-78
2023/01/25 01:14:06;;;;;;;18.75;10.13;;;2.30;90.80;;;;;;5061914;28;20043;-78
2023/01/25 01:16:33;;;;;;;15.25;8.20;;;2.30;90.80;;;;;;5076880;28;20027;-77
2023/01/25 01:18:59;;;;;;;16.63;9.25;;;2.30;90.80;;;;;;5043161;28;20039;-79
2023/01/25 01:21:24;;;;;;;16.30;9.55;;;2.30;90.80;;;;;;5076207;28;20040;-78
2023/01/25 01:23:50;;;;;;;16.08;8.88;;;2.30;90.80;;;;;;5061208;28;20049;-78
2023/01/25 01:26:18;;;;;;;17.48;9.52;;;2.30;90.80;;;;;;5041944;28;20036;-77
2023/01/25 01:28:43;;;;;;;15.88;8.77;;;2.30;90.80;;;;;;5040581;28;20075;-79
2023/01/25 01:31:16;;;;;;;16.27;9.13;;;2.30;90.80;;;;;;5074323;28;20119;-78
2023/01/25 01:33:42;;;;;;;17.02;9.18;;;2.30;90.80;;;;;;5061520;28;20036;-78
2023/01/25 01:36:12;;;;;;;17.63;8.90;;;2.30;90.80;;;;;;5053614;28;20553;-78
2023/01/25 01:38:37;;;;;;;17.30;9.68;;;2.30;90.80;;;;;;5036850;28;20044;-78
2023/01/25 01:41:03;;;;;;;16.10;8.48;;;2.30;90.80;;;;;;5071797;28;20039;-76
2023/01/25 01:43:31;;;;;;;13.82;7.97;;;2.30;90.80;;;;;;5059067;28;20067;-77
2023/01/25 01:46:01;;;;;;;21.98;9.25;;;2.30;90.80;;;;;;5066620;27;20032;-78
2023/01/25 01:48:32;;;;;;;15.45;8.57;;;2.30;90.90;;;;;;5040144;27;21029;-77
2023/01/25 01:51:04;;;;;;;17.92;9.63;;;2.30;90.90;;;;;;5068023;27;20044;-77
2023/01/25 01:53:29;;;;;;;16.13;9.95;;;2.30;90.90;;;;;;5047024;27;20702;-77
2023/01/25 01:55:57;;;;;;;16.50;9.20;;;2.30;90.90;;;;;;5073870;27;20047;-77
2023/01/25 01:58:22;;;;;;;16.25;9.23;;;2.30;90.90;;;;;;5053453;27;20035;-77
2023/01/25 02:00:48;;;;;;;17.35;9.15;;;2.30;90.90;;;;;;5066962;27;20042;-77
2023/01/25 02:03:15;;;;;;;14.27;7.90;;;2.20;90.90;;;;;;5074213;27;20039;-78
2023/01/25 02:06:00;;;;;;;14.55;8.38;;;2.20;91.10;;;;;;5069538;27;20035;-78
2023/01/25 02:08:26;;;;;;;14.40;7.60;;;2.20;90.90;;;;;;5079816;27;20100;-77
2023/01/25 02:10:51;;;;;;;14.88;8.10;;;2.20;90.90;;;;;;5044002;28;20043;-78
2023/01/25 02:13:17;;;;;;;13.63;7.85;;;2.20;90.90;;;;;;5065024;28;20043;-79
2023/01/25 02:15:48;;;;;;;16.70;9.07;;;2.20;90.90;;;;;;5083425;27;20063;-77
2023/01/25 02:18:14;;;;;;;21.00;9.90;;;2.20;90.90;;;;;;5063958;27;20043;-77
2023/01/25 02:20:43;;;;;;;15.95;8.27;;;2.20;90.90;;;;;;5054396;27;20036;-76
2023/01/25 02:23:24;;;;;;;14.77;7.90;;;2.20;90.90;;;;;;5054202;27;20114;-78
2023/01/25 02:25:50;;;;;;;14.03;8.07;;;2.20;90.90;;;;;;5080843;27;20119;-78
2023/01/25 02:28:49;;;;;;;13.80;7.75;;;2.20;90.90;;;;;;5077304;28;20285;-77
2023/01/25 02:31:15;;;;;;;15.00;7.75;;;2.20;90.90;;;;;;5013420;28;20046;-76
2023/01/25 02:33:40;;;;;;;15.95;8.38;;;2.20;90.90;;;;;;5065551;27;20039;-78
2023/01/25 02:36:06;;;;;;;14.52;7.93;;;2.20;90.90;;;;;;5084024;28;20036;-79
2023/01/25 02:38:32;;;;;;;14.85;8.13;;;2.20;90.90;;;;;;5100704;27;20038;-78
2023/01/25 02:41:37;;;;;;;13.88;7.80;;;2.20;90.90;;;;;;5065988;28;20036;-78
2023/01/25 02:44:27;;;;;;;14.38;7.10;;;2.20;90.90;;;;;;5020301;28;20061;-77
2023/01/25 02:46:53;;;;;;;13.00;7.67;;;2.20;90.90;;;;;;5005131;28;20095;-78
2023/01/25 02:49:19;;;;;;;16.80;8.05;;;2.20;90.90;;;;;;5020967;28;20522;-76
2023/01/25 02:51:46;;;;;;;13.55;8.15;;;2.20;90.90;;;;;;5019208;28;20037;-77
2023/01/25 02:54:13;;;;;;;14.00;7.70;;;2.20;90.90;;;;;;5004595;28;20037;-78
2023/01/25 02:56:39;;;;;;;13.32;7.45;;;2.20;90.90;;;;;;5033968;28;20029;-78
2023/01/25 02:59:05;;;;;;;16.80;8.88;;;2.20;91.00;;;;;;5031193;28;20499;-76
2023/01/25 03:01:37;;;;;;;12.13;6.93;;;2.20;90.90;;;;;;5000213;28;20037;-77
2023/01/25 03:04:04;;;;;;;15.88;7.93;;;2.10;90.90;;;;;;5018289;28;20049;-76
2023/01/25 03:06:30;;;;;;;13.48;7.50;;;2.10;90.90;;;;;;4975492;28;21008;-78
2023/01/25 03:08:55;;;;;;;14.20;7.72;;;2.10;90.90;;;;;;5001760;28;20797;-77
2023/01/25 03:11:21;;;;;;;14.02;8.23;;;2.10;90.90;;;;;;5016908;28;20040;-77
2023/01/25 03:13:46;;;;;;;15.15;7.78;;;2.10;90.90;;;;;;5021648;28;20043;-77
2023/01/25 03:16:12;;;;;;;12.77;7.75;;;2.10;90.90;;;;;;5066353;28;20046;-77
2023/01/25 03:18:38;;;;;;;14.18;7.70;;;2.10;90.90;;;;;;5067312;28;20609;-77
2023/01/25 03:21:07;;;;;;;15.30;8.20;;;2.10;90.90;;;;;;5060536;28;20414;-76
2023/01/25 03:23:33;;;;;;;13.85;7.88;;;2.10;90.90;;;;;;5061244;28;20050;-77
2023/01/25 03:26:16;;;;;;;13.82;7.57;;;2.10;90.90;;;;;;5069928;28;20886;-78
2023/01/25 03:28:41;;;;;;;11.93;6.60;;;2.10;91.00;;;;;;5059812;28;20114;-77
2023/01/25 03:31:08;;;;;;;13.88;7.50;;;2.10;90.90;;;;;;5056886;28;20875;-78
2023/01/25 03:33:34;;;;;;;14.63;8.38;;;2.10;91.00;;;;;;5055510;28;22032;-79
2023/01/25 03:35:59;;;;;;;11.27;6.53;;;2.10;90.90;;;;;;5052259;28;20577;-77
2023/01/25 03:38:25;;;;;;;15.23;8.15;;;2.10;91.00;;;;;;5053865;28;20566;-79
2023/01/25 03:40:51;;;;;;;16.20;8.48;;;2.10;91.00;;;;;;5058918;28;20032;-78
2023/01/25 03:43:16;;;;;;;13.75;7.80;;;2.10;91.00;;;;;;5071191;28;20123;-79
2023/01/25 03:45:42;;;;;;;13.10;6.80;;;2.10;91.00;;;;;;5056777;28;20575;-77
2023/01/25 03:48:07;;;;;;;16.52;8.30;;;2.10;91.00;;;;;;5063835;28;20090;-78
2023/01/25 03:50:33;;;;;;;18.25;8.50;;;2.10;91.00;;;;;;5078146;28;20118;-78
2023/01/25 03:53:05;;;;;;;17.80;9.30;;;2.10;91.00;;;;;;5070725;28;20127;-78
2023/01/25 03:55:30;;;;;;;13.63;7.97;;;2.10;91.00;;;;;;5051410;28;20089;-78
2023/01/25 03:57:56;;;;;;;14.40;8.05;;;2.10;91.00;;;;;;5031179;28;20033;-77
2023/01/25 04:00:21;;;;;;;13.57;7.03;;;2.10;90.90;;;;;;5063048;28;20142;-78
2023/01/25 04:02:47;;;;;;;12.90;7.30;;;2.00;90.90;;;;;;5037874;28;20035;-78
2023/01/25 04:05:12;;;;;;;13.40;7.13;;;2.10;91.00;;;;;;5046799;28;20039;-79
2023/01/25 04:07:38;;;;;;;12.80;7.18;;;2.00;90.90;;;;;;5070432;28;20032;-77
2023/01/25 04:10:04;;;;;;;13.35;7.13;;;2.10;91.00;;;;;;5051304;27;20035;-78
2023/01/25 04:12:30;;;;;;;13.95;7.95;;;2.00;90.90;;;;;;5042999;28;20056;-78
2023/01/25 04:14:55;;;;;;;12.57;7.07;;;2.00;91.00;;;;;;5069046;27;20494;-79
2023/01/25 04:17:21;;;;;;;13.88;7.28;;;2.00;91.00;;;;;;5064133;28;20035;-78
2023/01/25 04:19:46;;;;;;;14.25;7.85;;;2.00;91.00;;;;;;5027812;28;20025;-77
2023/01/25 04:22:12;;;;;;;16.75;7.88;;;2.00;91.00;;;;;;5037880;28;20035;-78
2023/01/25 04:24:37;;;;;;;15.02;8.07;;;2.00;91.00;;;;;;5047554;28;20042;-78
2023/01/25 04:27:04;;;;;;;13.80;7.57;;;2.00;91.00;;;;;;5030215;28;20141;-78
2023/01/25 04:29:29;;;;;;;14.75;8.02;;;2.00;91.00;;;;;;5073175;27;20044;-78
2023/01/25 04:31:55;;;;;;;14.40;8.27;;;2.00;91.00;;;;;;5061244;28;20054;-77
2023/01/25 04:34:20;;;;;;;13.38;7.47;;;2.00;90.90;;;;;;5079323;28;20065;-78
2023/01/25 04:36:46;;;;;;;18.13;11.77;;;1.90;90.90;;;;;;5042250;28;20036;-78
2023/01/25 04:39:11;;;;;;;13.98;8.65;;;1.90;91.00;;;;;;5031325;28;20040;-77
2023/01/25 04:41:37;;;;;;;45.78;24.08;;;2.00;91.00;;;;;;5068976;28;20052;-78
2023/01/25 04:44:02;;;;;;;18.15;10.45;;;2.00;91.00;;;;;;5063413;28;20672;-77
2023/01/25 04:46:28;;;;;;;16.60;9.13;;;2.00;91.00;;;;;;5031553;28;20496;-76
2023/01/25 04:48:53;;;;;;;28.77;12.77;;;1.90;91.00;;;;;;5073818;28;20503;-78
2023/01/25 04:51:19;;;;;;;27.70;12.60;;;1.90;91.00;;;;;;5045234;27;20035;-76
2023/01/25 04:53:44;;;;;;;25.17;12.75;;;1.90;91.00;;;;;;5064487;28;20051;-78
2023/01/25 04:56:10;;;;;;;102.03;44.00;;;1.90;91.00;;;;;;5025549;28;20039;-76
2023/01/25 04:58:35;;;;;;;180.57;74.07;;;2.00;91.00;;;;;;5075023;27;20456;-78
2023/01/25 05:01:01;;;;;;;114.47;50.20;;;2.00;91.00;;;;;;5042043;28;20043;-78
2023/01/25 05:03:27;;;;;;;52.90;24.95;;;1.90;91.00;;;;;;5054660;28;20036;-79
2023/01/25 05:05:53;;;;;;;76.78;34.35;;;1.90;91.00;;;;;;5023970;28;20107;-76
2023/01/25 05:08:18;;;;;;;20.10;10.32;;;1.90;91.00;;;;;;5026881;28;20697;-79
2023/01/25 05:10:44;;;;;;;29.77;14.75;;;1.90;91.00;;;;;;5043266;28;20073;-79
2023/01/25 05:13:09;;;;;;;19.90;10.73;;;1.90;91.00;;;;;;5060910;28;20024;-77
2023/01/25 05:15:35;;;;;;;18.30;9.98;;;1.90;91.00;;;;;;5046015;28;20494;-79
2023/01/25 05:18:01;;;;;;;22.92;13.77;;;1.90;91.00;;;;;;5063325;28;20032;-78
2023/01/25 05:20:26;;;;;;;23.92;16.02;;;1.90;91.00;;;;;;5065405;27;20074;-78
2023/01/25 05:22:52;;;;;;;22.15;13.10;;;1.90;91.00;;;;;;5059636;28;20023;-77
2023/01/25 05:28:05;;;;;;;18.50;10.40;;;1.90;90.90;;;;;;5077538;28;20657;-78
2023/01/25 05:30:31;;;;;;;19.10;10.70;;;1.90;91.00;;;;;;5055688;28;21537;-77
2023/01/25 05:32:56;;;;;;;15.80;8.90;;;1.90;90.90;;;;;;5053694;28;20037;-78
2023/01/25 05:35:22;;;;;;;18.88;10.35;;;1.90;91.00;;;;;;5069191;28;20031;-78
2023/01/25 05:37:47;;;;;;;19.15;9.38;;;1.90;91.00;;;;;;5046886;28;20437;-77
2023/01/25 05:40:13;;;;;;;17.85;9.85;;;1.90;90.90;;;;;;5061655;28;20059;-78
2023/01/25 05:42:39;;;;;;;18.13;9.38;;;1.90;91.00;;;;;;5084715;28;20111;-79
2023/01/25 05:45:05;;;;;;;13.48;7.95;;;1.90;91.00;;;;;;5071096;28;20042;-78
2023/01/25 05:47:31;;;;;;;16.52;8.55;;;2.00;91.00;;;;;;5067566;28;20055;-78
2023/01/25 05:49:56;;;;;;;14.27;8.27;;;2.00;91.00;;;;;;5064606;28;20084;-77
2023/01/25 05:52:22;;;;;;;16.17;8.35;;;2.00;91.00;;;;;;5071721;28;20055;-79
2023/01/25 05:54:47;;;;;;;18.48;8.20;;;1.90;91.00;;;;;;5059363;28;20074;-78
2023/01/25 05:57:13;;;;;;;16.30;9.18;;;1.90;91.00;;;;;;5075833;28;20111;-78
2023/01/25 05:59:39;;;;;;;16.30;7.90;;;1.90;91.00;;;;;;5051347;28;20040;-75
2023/01/25 06:02:04;;;;;;;15.00;8.38;;;1.90;91.00;;;;;;5065544;28;20036;-77
2023/01/25 06:04:30;;;;;;;14.23;7.88;;;2.00;91.00;;;;;;5084160;28;20050;-78
2023/01/25 06:06:55;;;;;;;17.75;9.38;;;2.00;91.00;;;;;;5049013;28;20036;-77
2023/01/25 06:09:22;;;;;;;15.57;8.73;;;2.00;91.00;;;;;;5085261;28;20039;-77
2023/01/25 06:11:47;;;;;;;18.38;8.60;;;2.00;91.00;;;;;;5066548;28;20063;-78
2023/01/25 06:14:13;;;;;;;15.00;8.18;;;1.90;91.00;;;;;;5063864;28;20131;-78
2023/01/25 06:16:38;;;;;;;18.27;9.20;;;2.00;91.00;;;;;;5038418;28;20043;-77
2023/01/25 06:19:07;;;;;;;13.77;7.90;;;2.00;91.00;;;;;;5074721;28;20031;-77
2023/01/25 06:21:35;;;;;;;14.73;7.90;;;2.00;91.00;;;;;;5069002;28;20047;-77
2023/01/25 06:24:01;;;;;;;14.45;8.43;;;2.00;91.00;;;;;;5059710;28;20052;-77
2023/01/25 06:26:27;;;;;;;15.70;7.22;;;1.90;91.00;;;;;;5040188;28;20113;-77
2023/01/25 06:28:52;;;;;;;15.30;8.30;;;2.00;91.00;;;;;;5065190;28;20052;-77
2023/01/25 06:31:18;;;;;;;13.65;7.85;;;2.00;91.10;;;;;;5054361;28;20036;-77
2023/01/25 06:33:47;;;;;;;13.68;7.70;;;2.00;91.00;;;;;;5026965;28;20115;-76
2023/01/25 06:36:13;;;;;;;15.70;8.40;;;1.90;91.00;;;;;;5058847;28;20032;-77
2023/01/25 06:38:39;;;;;;;14.18;7.57;;;1.90;91.00;;;;;;5042837;28;20039;-78
2023/01/25 06:41:06;;;;;;;14.07;7.75;;;2.00;91.00;;;;;;5057948;28;20040;-78
2023/01/25 06:43:32;;;;;;;12.00;6.82;;;2.00;91.10;;;;;;5005225;28;20036;-78
2023/01/25 06:46:01;;;;;;;16.02;7.85;;;2.00;91.10;;;;;;5047293;28;20035;-77
2023/01/25 06:48:27;;;;;;;16.45;8.10;;;2.00;91.10;;;;;;5035757;28;20556;-77
2023/01/25 06:50:54;;;;;;;12.85;6.82;;;2.00;91.10;;;;;;5025162;28;20033;-78
2023/01/25 06:53:20;;;;;;;15.50;8.20;;;2.00;91.10;;;;;;5028442;28;20060;-76
2023/01/25 06:55:45;;;;;;;14.88;7.63;;;2.00;91.10;;;;;;5026981;28;20063;-78
2023/01/25 06:58:11;;;;;;;14.25;7.45;;;2.00;91.10;;;;;;5059699;28;20032;-77
2023/01/25 07:00:36;;;;;;;12.70;6.72;;;1.90;91.10;;;;;;5044589;28;20091;-77
2023/01/25 07:03:02;;;;;;;18.55;9.40;;;2.00;91.10;;;;;;5051486;28;20040;-77
2023/01/25 07:05:27;;;;;;;26.00;16.63;;;2.00;91.10;;;;;;5058344;28;20063;-77
2023/01/25 07:07:53;;;;;;;23.75;15.43;;;2.00;91.10;;;;;;5046731;28;20025;-77
2023/01/25 07:10:18;;;;;;;18.98;10.70;;;2.00;91.10;;;;;;5049741;28;20119;-77
2023/01/25 07:12:44;;;;;;;16.15;8.45;;;2.00;91.10;;;;;;5051260;28;21504;-77
2023/01/25 07:15:09;;;;;;;17.38;8.88;;;2.00;91.10;;;;;;5044275;28;20047;-76
2023/01/25 07:17:35;;;;;;;15.85;8.27;;;2.00;91.10;;;;;;5060601;28;20047;-77
2023/01/25 07:20:01;;;;;;;15.70;8.77;;;2.00;91.10;;;;;;5023853;28;20039;-77
2023/01/25 07:22:26;;;;;;;17.48;8.63;;;2.00;91.10;;;;;;5042533;28;20039;-77
2023/01/25 07:24:52;;;;;;;15.38;8.65;;;2.00;91.10;;;;;;5050087;28;20096;-76
2023/01/25 07:27:18;;;;;;;14.00;7.88;;;2.00;91.10;;;;;;5057167;28;20510;-77
2023/01/25 07:29:43;;;;;;;16.92;8.55;;;2.00;91.10;;;;;;5052365;28;20043;-77
2023/01/25 07:32:12;;;;;;;18.02;11.40;;;2.00;91.10;;;;;;5067645;28;20137;-77
2023/01/25 07:34:38;;;;;;;28.85;20.15;;;2.00;91.10;;;;;;5066542;28;20043;-76
2023/01/25 07:37:03;;;;;;;23.88;15.15;;;2.00;91.10;;;;;;5044747;28;20036;-78
2023/01/25 07:39:29;;;;;;;17.67;10.45;;;2.00;91.10;;;;;;5058231;27;20035;-78
2023/01/25 07:41:54;;;;;;;22.88;11.07;;;2.00;91.10;;;;;;5096628;27;20035;-77
2023/01/25 07:44:20;;;;;;;17.85;10.77;;;2.00;91.10;;;;;;5066535;28;20189;-77
2023/01/25 07:46:46;;;;;;;23.08;11.60;;;2.00;91.10;;;;;;5041203;28;20774;-77
2023/01/25 07:49:11;;;;;;;20.13;10.45;;;1.90;91.10;;;;;;5076162;28;20471;-77
2023/01/25 07:51:37;;;;;;;20.63;10.75;;;2.00;91.10;;;;;;5061323;28;20027;-78
2023/01/25 07:54:03;;;;;;;17.05;9.13;;;2.00;91.10;;;;;;5063641;28;20442;-77
2023/01/25 07:56:33;;;;;;;18.10;9.90;;;2.00;91.10;;;;;;5037206;28;20190;-77
2023/01/25 07:59:01;;;;;;;21.50;10.43;;;2.00;91.10;;;;;;5039065;27;20041;-78
2023/01/25 08:01:27;;;;;;;17.45;9.55;;;1.90;91.10;;;;;;5061806;28;20067;-77
2023/01/25 08:03:55;;;;;;;16.83;9.15;;;2.00;91.20;;;;;;5077646;28;20039;-77
2023/01/25 08:06:30;;;;;;;19.10;11.52;;;1.90;91.10;;;;;;5051108;28;20035;-77
2023/01/25 08:08:55;;;;;;;17.50;8.57;;;1.90;91.10;;;;;;5058780;27;20746;-78
2023/01/25 08:11:23;;;;;;;18.77;9.95;;;1.90;91.10;;;;;;5054430;28;20047;-77
2023/01/25 08:13:48;;;;;;;18.50;9.63;;;2.00;91.20;;;;;;5057559;28;20043;-77
2023/01/25 08:16:15;;;;;;;16.42;8.50;;;2.00;91.20;;;;;;5063878;28;20410;-78
2023/01/25 08:18:40;;;;;;;16.88;8.27;;;2.00;91.20;;;;;;5052250;28;20490;-77
2023/01/25 08:21:06;;;;;;;14.45;7.70;;;2.00;91.20;;;;;;5042997;28;20043;-77
2023/01/25 08:23:31;;;;;;;14.90;7.70;;;1.90;91.10;;;;;;5059633;28;20074;-75
2023/01/25 08:26:04;;;;;;;15.35;7.93;;;2.00;91.20;;;;;;5076613;28;20043;-78
2023/01/25 08:28:29;;;;;;;14.20;7.82;;;2.00;91.20;;;;;;5035770;28;21655;-76
2023/01/25 08:31:03;;;;;;;17.13;8.75;;;2.00;91.10;;;;;;5042503;28;20631;-77
2023/01/25 08:33:28;;;;;;;16.17;8.18;;;2.00;91.20;;;;;;5054517;28;20669;-77
2023/01/25 08:35:55;;;;;;;15.40;8.23;;;1.90;91.10;;;;;;5039087;28;20498;-78
2023/01/25 08:38:21;;;;;;;14.30;7.65;;;2.00;91.10;;;;;;5048684;28;20048;-78
2023/01/25 08:40:46;;;;;;;16.63;7.95;;;2.00;91.20;;;;;;5071319;28;20657;-78
2023/01/25 08:43:12;;;;;;;16.25;8.25;;;2.00;91.20;;;;;;5040492;28;20063;-77
2023/01/25 08:45:38;;;;;;;15.60;8.70;;;2.00;91.20;;;;;;5056888;28;20161;-77
2023/01/25 08:48:03;;;;;;;16.33;8.35;;;1.90;91.20;;;;;;5037931;28;20032;-78
2023/01/25 08:50:29;;;;;;;16.98;8.55;;;2.00;91.20;;;;;;5056806;28;20485;-77
2023/01/25 08:52:54;;;;;;;16.95;8.18;;;2.00;91.20;;;;;;5054272;28;20028;-77
2023/01/25 08:55:20;;;;;;;19.02;9.63;;;2.00;91.20;;;;;;5055125;28;20031;-77
2023/01/25 08:57:46;;;;;;;18.20;8.90;;;2.00;91.20;;;;;;5013669;28;20208;-77
2023/01/25 09:00:12;;;;;;;15.73;8.23;;;2.00;91.20;;;;;;5055587;28;20496;-76
2023/01/25 09:02:37;;;;;;;19.05;8.98;;;2.00;91.20;;;;;;5054940;28;20109;-75
2023/01/25 09:05:03;;;;;;;21.33;9.75;;;2.00;91.20;;;;;;5041569;28;20044;-78
2023/01/25 09:07:31;;;;;;;21.80;10.27;;;2.00;91.20;;;;;;5043943;28;20036;-76
2023/01/25 09:09:56;;;;;;;21.75;10.88;;;2.00;91.20;;;;;;5057603;28;20063;-78
2023/01/25 09:12:22;;;;;;;17.65;8.77;;;2.00;91.20;;;;;;5041939;28;20123;-77
2023/01/25 09:14:48;;;;;;;16.77;7.97;;;2.00;91.20;;;;;;5053326;28;20773;-77
2023/01/25 09:17:13;;;;;;;19.67;10.10;;;2.10;91.20;;;;;;5061268;28;20099;-78
2023/01/25 09:19:40;;;;;;;17.40;9.70;;;2.00;91.20;;;;;;5031069;28;20032;-76
2023/01/25 09:22:07;;;;;;;18.38;9.35;;;2.00;91.20;;;;;;5037274;28;20600;-78
2023/01/25 09:24:33;;;;;;;21.77;11.25;;;2.00;91.20;;;;;;5058475;28;20035;-77
2023/01/25 09:26:59;;;;;;;17.67;9.30;;;2.10;91.20;;;;;;5042895;28;20044;-78
2023/01/25 09:29:24;;;;;;;20.55;9.88;;;2.00;91.20;;;;;;5031384;28;20102;-79
2023/01/25 09:31:51;;;;;;;18.35;9.45;;;2.10;91.20;;;;;;5040363;28;20028;-79
2023/01/25 09:34:16;;;;;;;19.77;9.25;;;2.10;91.20;;;;;;5043614;28;20051;-79
2023/01/25 09:36:42;;;;;;;19.05;9.77;;;2.00;91.20;;;;;;5049552;28;20032;-77
2023/01/25 09:39:11;;;;;;;18.15;9.68;;;2.10;91.20;;;;;;5052252;28;20039;-79
2023/01/25 09:42:12;;;;;;;20.38;10.73;;;2.10;91.20;;;;;;5050657;28;20035;-76
2023/01/25 09:44:56;;;;;;;;;;;2.10;91.20;;;;;;5042096;28;20647;-79
2023/01/25 09:47:43;;;;;;;17.35;9.32;;;2.10;91.20;;;;;;5076286;28;19915;-79
2023/01/25 09:50:24;;;;;;;16.00;8.57;;;2.10;91.10;;;;;;5043331;28;20266;-78
2023/01/25 09:53:11;;;;;;;15.15;7.75;;;2.10;91.10;;;;;;5065968;28;20036;-79
2023/01/25 09:55:36;;;;;;;13.52;7.43;;;2.10;91.20;;;;;;5061661;28;20044;-78
2023/01/25 09:58:03;;;;;;;16.25;8.20;;;2.10;91.10;;;;;;5024241;28;20623;-79
2023/01/25 10:00:44;;;;;;;16.67;9.20;;;2.10;91.10;;;;;;5052712;28;20043;-77
2023/01/25 10:03:21;;;;;;;15.90;8.60;;;2.10;91.20;;;;;;5050866;28;20043;-78
2023/01/25 10:05:50;;;;;;;15.20;7.82;;;2.10;91.20;;;;;;5057295;28;20039;-77
2023/01/25 10:08:27;;;;;;;16.50;8.52;;;2.10;91.20;;;;;;5057374;28;20036;-78
2023/01/25 10:11:16;;;;;;;17.85;9.40;;;2.10;91.10;;;;;;5063520;28;20024;-78
2023/01/25 10:13:42;;;;;;;18.15;9.45;;;2.10;91.20;;;;;;5044605;28;20035;-76
2023/01/25 10:16:31;;;;;;;21.58;10.75;;;2.10;91.20;;;;;;5060861;28;20384;-78
2023/01/25 10:19:21;;;;;;;29.30;12.40;;;2.10;91.20;;;;;;5062616;28;20032;-79
2023/01/25 10:21:48;;;;;;;13.50;6.80;;;2.20;91.10;;;;;;5076139;28;20032;-77
2023/01/25 10:24:29;;;;;;;15.55;7.53;;;2.20;91.10;;;;;;5055813;28;20066;-78
2023/01/25 10:26:56;;;;;;;15.15;7.63;;;2.20;91.10;;;;;;5078121;28;20471;-78
2023/01/25 10:29:25;;;;;;;18.23;8.20;;;2.20;91.10;;;;;;5055481;28;20101;-79
2023/01/25 10:31:52;;;;;;;14.85;8.45;;;2.20;91.10;;;;;;5065299;28;20067;-79
2023/01/25 10:34:23;;;;;;;37.65;17.30;;;2.20;91.10;;;;;;5060223;28;20535;-79
2023/01/25 10:36:56;;;;;;;20.95;11.35;;;2.20;91.10;;;;;;5064374;28;20069;-78
2023/01/25 10:39:24;;;;;;;24.92;12.85;;;2.20;91.20;;;;;;5063966;28;20083;-76
2023/01/25 10:42:00;;;;;;;17.45;9.30;;;2.20;91.10;;;;;;5067872;28;20081;-77
2023/01/25 10:44:27;;;;;;;16.80;9.88;;;2.20;91.10;;;;;;5047220;28;20040;-77
2023/01/25 10:47:22;;;;;;;19.23;11.15;;;2.20;91.10;;;;;;5079256;28;20032;-79
2023/01/25 10:49:50;;;;;;;15.85;8.60;;;2.20;91.20;;;;;;5054074;28;20040;-77
2023/01/25 10:52:26;;;;;;;14.10;7.93;;;2.30;91.20;;;;;;5052728;28;20047;-76
2023/01/25 10:55:11;;;;;;;15.93;7.72;;;2.30;91.20;;;;;;5030359;28;20051;-78
2023/01/25 10:57:36;;;;;;;20.13;8.93;;;2.30;91.10;;;;;;5062408;28;20068;-77
2023/01/25 11:00:06;;;;;;;17.02;9.20;;;2.30;91.10;;;;;;5023925;28;20121;-77
2023/01/25 11:02:34;;;;;;;12.57;7.15;;;2.30;91.10;;;;;;5047425;28;20032;-75
2023/01/25 11:05:26;;;;;;;15.15;7.88;;;2.30;91.10;;;;;;5079626;28;20043;-77
2023/01/25 11:07:52;;;;;;;17.92;8.73;;;2.30;91.10;;;;;;5070427;28;20607;-77
2023/01/25 11:10:33;;;;;;;12.25;6.35;;;2.30;91.10;;;;;;5044187;28;20040;-81
2023/01/25 11:13:23;;;;;;;12.50;5.93;;;2.30;91.10;;;;;;5042577;28;20036;-78
2023/01/25 11:16:10;;;;;;;13.57;7.00;;;2.30;91.10;;;;;;5034262;28;20039;-76
2023/01/25 11:18:36;;;;;;;14.20;7.07;;;2.30;91.00;;;;;;5078661;28;20123;-79
2023/01/25 11:21:09;;;;;;;14.57;7.03;;;2.30;91.00;;;;;;5061141;28;20590;-79
2023/01/25 11:23:35;;;;;;;14.73;6.93;;;2.30;91.00;;;;;;5050741;28;20117;-78
2023/01/25 11:26:16;;;;;;;11.57;5.90;;;2.30;91.00;;;;;;5065316;28;20036;-79
2023/01/25 11:28:43;;;;;;;14.68;5.93;;;2.30;91.00;;;;;;5049987;28;20089;-79
2023/01/25 11:31:11;;;;;;;12.38;5.63;;;2.30;91.10;;;;;;5053271;28;20040;-80
2023/01/25 11:33:36;;;;;;;11.60;6.38;;;2.30;91.00;;;;;;5061001;28;20036;-79
2023/01/25 11:36:10;;;;;;;12.27;6.90;;;2.30;91.00;;;;;;5050798;28;20036;-78
2023/01/25 11:38:36;;;;;;;15.02;6.78;;;2.30;91.00;;;;;;5045533;28;20054;-78
2023/01/25 11:41:09;;;;;;;14.55;6.75;;;2.30;91.00;;;;;;5044317;28;20501;-78
2023/01/25 11:44:01;;;;;;;13.57;6.80;;;2.40;91.00;;;;;;5079787;28;21084;-77
2023/01/25 11:46:27;;;;;;;17.50;7.50;;;2.40;91.00;;;;;;5060999;28;20036;-77
2023/01/25 11:49:15;;;;;;;11.95;6.95;;;2.40;91.00;;;;;;5070593;28;20102;-77
2023/01/25 11:52:07;;;;;;;17.05;8.52;;;2.40;91.10;;;;;;5063979;28;20056;-77
2023/01/25 11:55:15;;;;;;;12.40;6.80;;;2.40;91.00;;;;;;5076447;28;20028;-78
2023/01/25 11:58:08;;;;;;;16.67;8.15;;;2.40;91.00;;;;;;4994804;28;20182;-77
2023/01/25 12:00:58;;;;;;;13.05;6.65;;;2.40;91.00;;;;;;4996107;28;20109;-78
2023/01/25 12:04:00;;;;;;;12.43;6.63;;;2.50;91.00;;;;;;5009294;28;20041;-77
2023/01/25 12:06:58;;;;;;;12.00;5.70;;;2.50;91.00;;;;;;4976619;28;20025;-77
2023/01/25 12:09:27;;;;;;;15.05;6.53;;;2.50;91.00;;;;;;4967186;28;20137;-78
2023/01/25 12:12:08;;;;;;;11.80;6.55;;;2.40;91.00;;;;;;4979823;28;20044;-76
2023/01/25 12:15:00;;;;;;;15.13;7.40;;;2.40;91.00;;;;;;4994375;28;20038;-79
2023/01/25 12:17:50;;;;;;;15.07;7.85;;;2.40;91.00;;;;;;4993378;28;20037;-77
2023/01/25 12:20:37;;;;;;;11.40;6.43;;;2.50;91.00;;;;;;4992989;28;20061;-76
2023/01/25 12:23:31;;;;;;;11.88;6.32;;;2.40;90.90;;;;;;4994017;28;20543;-77
2023/01/25 12:26:17;;;;;;;15.88;7.43;;;2.40;90.90;;;;;;4967420;28;20532;-76
2023/01/25 12:29:03;;;;;;;16.45;8.60;;;2.40;90.90;;;;;;5062004;28;20059;-76
2023/01/25 12:32:09;;;;;;;14.18;6.70;;;2.40;90.90;;;;;;5063149;28;20534;-77
2023/01/25 12:34:36;;;;;;;11.93;6.53;;;2.40;91.00;;;;;;5064773;27;20126;-78
2023/01/25 12:37:31;;;;;;;19.33;8.82;;;2.40;90.90;;;;;;5043656;28;20108;-77
2023/01/25 12:39:58;;;;;;;19.15;7.78;;;2.40;91.00;;;;;;5055964;28;20040;-78
2023/01/25 12:42:30;;;;;;;16.33;8.25;;;2.40;91.00;;;;;;5060147;27;20060;-76
2023/01/25 12:45:09;;;;;;;19.52;9.40;;;2.40;91.00;;;;;;5075999;28;20039;-79
2023/01/25 12:47:43;;;;;;;17.95;8.00;;;2.40;91.00;;;;;;5043146;27;20046;-77
2023/01/25 12:50:24;;;;;;;19.17;8.88;;;2.40;91.00;;;;;;5084880;27;20078;-77
2023/01/25 12:53:02;;;;;;;14.98;7.63;;;2.40;91.00;;;;;;5035214;28;20038;-77
2023/01/25 12:55:28;;;;;;;13.93;7.10;;;2.40;91.00;;;;;;5078761;27;20033;-77
2023/01/25 12:57:57;;;;;;;16.75;8.98;;;2.40;91.00;;;;;;5057751;28;20036;-78
2023/01/25 13:00:31;;;;;;;18.83;8.75;;;2.40;90.90;;;;;;5053412;27;20046;-78